Time;durP1;ratioP1;P1;durP2;ratioP2;P2;SDS_P1;SDS_P2;PMS_P1;PMS_P2;Temp;Humidity;BMP_temperature;BMP_pressure;BME280_temperature;BME280_humidity;BME280_pressure;Samples;Min_cycle;Max_cycle;Signal;HPM_P1;HPM_P2
2022/06/14 00:00:54;;;;;;;7.10;3.60;;;15.00;99.90;;;;;;5114928;28;20602;-70
2022/06/14 00:03:27;;;;;;;4.40;3.97;;;15.00;99.90;;;;;;5114157;28;20174;-70
2022/06/14 00:05:53;;;;;;;4.57;3.90;;;15.00;99.90;;;;;;5114362;28;20466;-70
2022/06/14 00:08:21;;;;;;;5.03;4.40;;;14.90;99.90;;;;;;5114086;28;20942;-70
2022/06/14 00:10:48;;;;;;;5.03;4.43;;;14.90;99.90;;;;;;5114735;28;20477;-70
2022/06/14 00:13:15;;;;;;;5.03;4.63;;;14.90;99.90;;;;;;5114062;28;20505;-76
2022/06/14 00:15:41;;;;;;;4.67;4.27;;;14.90;99.90;;;;;;5113148;28;20422;-70
2022/06/14 00:18:07;;;;;;;6.00;4.70;;;14.90;99.90;;;;;;5114304;28;20409;-70
2022/06/14 00:20:33;;;;;;;5.50;4.40;;;14.80;99.90;;;;;;5112478;28;20455;-70
2022/06/14 00:22:59;;;;;;;4.90;4.47;;;14.80;99.90;;;;;;5114368;28;20415;-70
2022/06/14 00:25:52;;;;;;;4.90;4.57;;;14.80;99.90;;;;;;5077636;28;20451;-70
2022/06/14 00:28:19;;;;;;;4.70;4.40;;;14.70;99.80;;;;;;5108877;28;20188;-70
2022/06/14 00:30:49;;;;;;;4.47;4.07;;;14.70;99.90;;;;;;5113926;28;20403;-70
2022/06/14 00:33:15;;;;;;;7.80;4.43;;;14.70;99.90;;;;;;5114226;28;20433;-70
2022/06/14 00:35:41;;;;;;;4.73;4.43;;;14.70;99.90;;;;;;5114122;28;20833;-70
2022/06/14 00:38:09;;;;;;;4.97;4.47;;;14.70;99.90;;;;;;5114360;28;20507;-70
2022/06/14 00:40:36;;;;;;;4.40;4.10;;;14.70;99.90;;;;;;5113453;28;20410;-70
2022/06/14 00:43:05;;;;;;;5.53;5.03;;;14.70;99.90;;;;;;5113942;27;20892;-70
2022/06/14 00:45:51;;;;;;;5.90;4.27;;;14.60;99.90;;;;;;5113287;28;20533;-70
2022/06/14 00:48:31;;;;;;;4.57;4.20;;;14.60;99.90;;;;;;5105509;28;20904;-73
2022/06/14 00:51:16;;;;;;;4.50;4.20;;;14.50;99.90;;;;;;5113494;28;20409;-70
2022/06/14 00:53:58;;;;;;;4.63;4.07;;;14.50;99.90;;;;;;5113060;28;20395;-70
2022/06/14 00:56:40;;;;;;;4.47;4.10;;;14.50;99.90;;;;;;5113004;28;20452;-70
2022/06/14 00:59:16;;;;;;;5.77;4.40;;;14.40;99.90;;;;;;5113854;28;20397;-70
2022/06/14 01:01:43;;;;;;;4.33;4.03;;;14.40;99.90;;;;;;5113432;28;20719;-70
2022/06/14 01:04:17;;;;;;;4.10;3.80;;;14.40;99.90;;;;;;5112442;28;20516;-70
2022/06/14 01:07:06;;;;;;;4.20;3.83;;;14.40;99.90;;;;;;5113585;28;20442;-70
2022/06/14 01:09:37;;;;;;;4.23;3.93;;;14.40;99.90;;;;;;5112984;28;20427;-70
2022/06/14 01:12:14;;;;;;;6.50;3.77;;;14.40;99.90;;;;;;5113589;28;20399;-70
2022/06/14 01:15:02;;;;;;;4.50;4.10;;;14.30;99.90;;;;;;5112823;28;20848;-70
2022/06/14 01:17:32;;;;;;;5.23;4.00;;;14.30;99.90;;;;;;5111745;28;20446;-70
2022/06/14 01:19:58;;;;;;;4.43;4.03;;;14.30;99.90;;;;;;5113026;28;20462;-70
2022/06/14 01:22:26;;;;;;;4.83;3.57;;;14.30;99.90;;;;;;5112690;28;20424;-70
2022/06/14 01:24:52;;;;;;;4.03;3.73;;;14.20;99.90;;;;;;5113571;28;20411;-70
2022/06/14 01:27:20;;;;;;;4.43;4.13;;;14.20;99.90;;;;;;5113274;28;20417;-70
2022/06/14 01:30:05;;;;;;;5.23;4.40;;;14.20;99.90;;;;;;5113630;28;20420;-70
2022/06/14 01:32:35;;;;;;;4.60;4.20;;;14.10;99.90;;;;;;5112743;28;20398;-70
2022/06/14 01:35:05;;;;;;;4.20;3.90;;;14.10;99.90;;;;;;5113619;28;20485;-70
2022/06/14 01:37:32;;;;;;;5.03;4.30;;;14.10;99.90;;;;;;5112671;28;20470;-70
2022/06/14 01:39:58;;;;;;;4.90;4.50;;;14.10;99.90;;;;;;5113181;28;20481;-70
2022/06/14 01:42:41;;;;;;;5.13;4.70;;;14.10;99.90;;;;;;5112822;28;20423;-70
2022/06/14 01:45:26;;;;;;;8.47;4.20;;;14.10;99.90;;;;;;5113062;28;20500;-70
2022/06/14 01:47:51;;;;;;;4.23;3.93;;;14.10;99.90;;;;;;5113253;28;20766;-70
2022/06/14 01:53:40;;;;;;;4.93;4.47;;;14.10;99.90;;;;;;5112671;28;20190;-71
2022/06/14 01:56:18;;;;;;;4.10;3.90;;;14.00;99.90;;;;;;5113150;28;20404;-70
2022/06/14 01:58:49;;;;;;;4.60;4.20;;;14.00;99.90;;;;;;5112344;28;20888;-70
2022/06/14 02:01:27;;;;;;;4.83;4.43;;;14.00;99.90;;;;;;5112635;28;20914;-70
2022/06/14 02:07:19;;;;;;;4.90;4.50;;;13.90;99.90;;;;;;5100422;28;20480;-70
2022/06/14 02:10:36;;;;;;;4.53;4.23;;;13.90;99.90;;;;;;5116386;28;20480;-70
2022/06/14 02:13:24;;;;;;;4.20;3.90;;;13.80;99.90;;;;;;5085474;28;20419;-70
2022/06/14 02:15:55;;;;;;;7.17;4.67;;;13.80;99.90;;;;;;5116965;28;20499;-70
2022/06/14 02:18:31;;;;;;;4.40;4.10;;;13.80;99.90;;;;;;5116992;28;20416;-70
2022/06/14 02:21:23;;;;;;;4.23;3.83;;;13.80;99.90;;;;;;5117303;28;20466;-70
2022/06/14 02:23:57;;;;;;;5.83;4.43;;;13.70;99.90;;;;;;5116840;28;20419;-70
2022/06/14 02:26:36;;;;;;;4.23;3.93;;;13.70;99.90;;;;;;5115967;28;20933;-71
2022/06/14 02:29:10;;;;;;;4.50;4.10;;;13.70;99.90;;;;;;5116615;28;20404;-70
2022/06/14 02:31:45;;;;;;;4.77;4.30;;;13.70;99.90;;;;;;5115902;28;20404;-70
2022/06/14 02:34:16;;;;;;;3.90;3.70;;;13.60;99.90;;;;;;5116548;28;20746;-70
2022/06/14 02:36:50;;;;;;;4.60;4.20;;;13.60;99.90;;;;;;5114715;28;20430;-70
2022/06/14 02:39:23;;;;;;;5.00;4.23;;;13.60;99.90;;;;;;5114929;28;20429;-70
2022/06/14 02:42:04;;;;;;;4.50;4.30;;;13.60;99.90;;;;;;5116419;28;20839;-70
2022/06/14 02:44:50;;;;;;;4.80;4.50;;;13.60;99.90;;;;;;5115757;28;20408;-70
2022/06/14 02:47:25;;;;;;;4.70;4.30;;;13.50;99.90;;;;;;5115947;28;20443;-70
2022/06/14 02:50:06;;;;;;;5.37;4.53;;;13.50;99.90;;;;;;5116423;28;20883;-70
2022/06/14 02:52:47;;;;;;;5.13;4.27;;;13.50;99.90;;;;;;5115622;28;20499;-70
2022/06/14 02:55:45;;;;;;;4.97;4.60;;;13.40;99.90;;;;;;5116231;28;20407;-70
2022/06/14 02:58:22;;;;;;;4.83;4.47;;;13.40;99.90;;;;;;5116057;28;20723;-70
2022/06/14 03:00:55;;;;;;;5.00;4.60;;;13.40;99.90;;;;;;5115177;27;20921;-70
2022/06/14 03:03:29;;;;;;;4.97;4.67;;;13.40;99.90;;;;;;5079936;28;20751;-70
2022/06/14 03:06:02;;;;;;;5.07;4.63;;;13.40;99.90;;;;;;5115816;28;20503;-70
2022/06/14 03:08:48;;;;;;;4.97;4.57;;;13.40;99.90;;;;;;5115138;28;20415;-70
2022/06/14 03:11:14;;;;;;;5.50;4.67;;;13.30;99.90;;;;;;5114695;28;20400;-70
2022/06/14 03:13:56;;;;;;;5.23;4.83;;;13.30;99.90;;;;;;5115150;28;20463;-70
2022/06/14 03:16:42;;;;;;;5.17;4.20;;;13.30;99.90;;;;;;5114916;28;20181;-70
2022/06/14 03:19:26;;;;;;;4.27;4.00;;;13.30;99.90;;;;;;5115710;28;20470;-70
2022/06/14 03:21:59;;;;;;;4.97;4.53;;;13.30;99.90;;;;;;5114663;28;20421;-70
2022/06/14 03:24:55;;;;;;;4.50;4.10;;;13.30;99.90;;;;;;5115302;28;20489;-70
2022/06/14 03:27:30;;;;;;;5.80;4.70;;;13.30;99.90;;;;;;5100549;28;20506;-70
2022/06/14 03:30:19;;;;;;;4.77;4.50;;;13.30;99.90;;;;;;5115365;28;20454;-70
2022/06/14 03:33:03;;;;;;;4.90;4.57;;;13.30;99.90;;;;;;5113712;28;20407;-70
2022/06/14 03:35:47;;;;;;;5.33;4.93;;;13.30;99.90;;;;;;5114903;28;20451;-70
2022/06/14 03:38:17;;;;;;;6.07;5.57;;;13.30;99.90;;;;;;5114314;28;20414;-70
2022/06/14 03:40:44;;;;;;;5.30;4.90;;;13.20;99.90;;;;;;5114755;28;20398;-70
2022/06/14 03:43:11;;;;;;;8.07;5.67;;;13.20;99.90;;;;;;5115108;28;20505;-70
2022/06/14 03:45:57;;;;;;;6.73;6.17;;;13.30;99.90;;;;;;5096194;28;20492;-70
2022/06/14 03:48:24;;;;;;;6.00;5.60;;;13.20;99.90;;;;;;5115081;28;20862;-70
2022/06/14 03:51:08;;;;;;;6.83;6.30;;;13.20;99.90;;;;;;5114416;28;20449;-70
2022/06/14 03:53:58;;;;;;;4.33;4.13;;;13.20;99.90;;;;;;5113258;28;20544;-70
2022/06/14 03:56:48;;;;;;;5.67;5.17;;;13.20;99.90;;;;;;5114991;28;20407;-70
2022/06/14 03:59:20;;;;;;;5.80;5.50;;;13.20;99.90;;;;;;5115020;28;20398;-70
2022/06/14 04:02:05;;;;;;;5.97;5.67;;;13.20;99.90;;;;;;5114304;28;20525;-70
2022/06/14 04:04:37;;;;;;;6.40;5.10;;;13.20;99.90;;;;;;5114212;28;20403;-70
2022/06/14 04:07:36;;;;;;;5.20;4.70;;;13.20;99.90;;;;;;5114754;28;20468;-70
2022/06/14 04:10:20;;;;;;;6.07;5.47;;;13.20;99.90;;;;;;5114617;28;20538;-70
2022/06/14 04:13:25;;;;;;;7.20;6.53;;;13.30;99.90;;;;;;5114011;28;20452;-70
2022/06/14 04:16:04;;;;;;;6.03;5.43;;;13.30;99.90;;;;;;5113643;28;20428;-70
2022/06/14 04:18:50;;;;;;;7.83;7.13;;;13.30;99.90;;;;;;5113756;28;20403;-71
2022/06/14 04:21:21;;;;;;;7.53;5.60;;;13.20;99.90;;;;;;5114170;28;20411;-70
2022/06/14 04:23:59;;;;;;;7.13;6.43;;;13.30;99.90;;;;;;5112603;28;20448;-70
2022/06/14 04:26:33;;;;;;;5.83;5.23;;;13.30;99.90;;;;;;5095757;28;20451;-70
2022/06/14 04:29:04;;;;;;;8.90;6.37;;;13.40;99.90;;;;;;5095981;28;20412;-70
2022/06/14 04:31:39;;;;;;;9.20;6.13;;;13.40;99.90;;;;;;5113682;28;20403;-76
2022/06/14 04:34:31;;;;;;;6.10;5.50;;;13.40;99.90;;;;;;5114314;28;20471;-70
2022/06/14 04:37:05;;;;;;;6.17;5.30;;;13.50;99.90;;;;;;5114073;28;20816;-70
2022/06/14 04:39:35;;;;;;;6.90;6.30;;;13.50;99.90;;;;;;5112244;28;20961;-70
2022/06/14 04:42:08;;;;;;;5.80;5.20;;;13.50;99.90;;;;;;5113988;28;20405;-70
2022/06/14 04:45:00;;;;;;;6.90;6.40;;;13.50;99.90;;;;;;5112326;28;20454;-70
2022/06/14 04:47:33;;;;;;;7.37;6.73;;;13.60;99.90;;;;;;5114042;28;20472;-70
2022/06/14 04:50:08;;;;;;;5.90;5.40;;;13.60;99.90;;;;;;5114037;28;20396;-70
2022/06/14 04:52:46;;;;;;;7.27;6.60;;;13.70;99.90;;;;;;5113268;28;20469;-71
2022/06/14 04:55:18;;;;;;;4.93;4.43;;;13.70;99.90;;;;;;5113946;28;20401;-70
2022/06/14 04:57:48;;;;;;;5.30;4.80;;;13.70;99.90;;;;;;5111970;28;20424;-71
2022/06/14 05:00:30;;;;;;;7.47;6.97;;;13.70;99.90;;;;;;5112507;28;20421;-71
2022/06/14 05:03:15;;;;;;;8.00;5.90;;;13.80;99.90;;;;;;5113174;28;20393;-71
2022/06/14 05:05:59;;;;;;;5.03;4.63;;;13.80;99.90;;;;;;5111790;28;20437;-71
2022/06/14 05:08:29;;;;;;;7.03;6.53;;;13.80;99.90;;;;;;5113686;28;20396;-71
2022/06/14 05:11:04;;;;;;;5.70;4.97;;;13.80;99.90;;;;;;5113064;28;20734;-71
2022/06/14 05:13:38;;;;;;;7.80;5.63;;;13.80;99.90;;;;;;5112174;28;20423;-71
2022/06/14 05:17:00;;;;;;;5.43;4.83;;;13.90;99.90;;;;;;5113468;28;20395;-70
2022/06/14 05:19:38;;;;;;;6.00;5.50;;;13.90;99.90;;;;;;5070061;28;20543;-71
2022/06/14 05:22:33;;;;;;;5.80;5.20;;;13.90;99.90;;;;;;5053774;28;20468;-71
2022/06/14 05:25:00;;;;;;;5.87;5.50;;;14.00;99.90;;;;;;5070690;28;20814;-71
2022/06/14 05:27:54;;;;;;;6.67;5.43;;;14.10;99.90;;;;;;5070364;28;20425;-70
2022/06/14 05:30:43;;;;;;;6.53;5.00;;;14.10;99.90;;;;;;5053581;28;20433;-71
2022/06/14 05:33:30;;;;;;;5.70;5.27;;;14.10;99.90;;;;;;5004044;28;20415;-71
2022/06/14 05:36:06;;;;;;;5.90;5.40;;;14.20;99.90;;;;;;5069513;28;21022;-71
2022/06/14 05:38:37;;;;;;;5.93;5.43;;;14.20;99.90;;;;;;5069939;28;20431;-70
2022/06/14 05:41:08;;;;;;;6.70;6.00;;;14.30;99.90;;;;;;5070296;28;20435;-70
2022/06/14 05:43:42;;;;;;;6.73;5.83;;;14.40;99.90;;;;;;5070123;28;20460;-71
2022/06/14 05:46:19;;;;;;;5.70;5.23;;;14.40;99.90;;;;;;5070190;28;20439;-71
2022/06/14 05:48:52;;;;;;;6.50;5.97;;;14.40;99.90;;;;;;5054050;28;20491;-70
2022/06/14 05:51:27;;;;;;;8.63;6.40;;;14.50;99.90;;;;;;5111847;28;20756;-71
2022/06/14 05:54:29;;;;;;;6.40;5.77;;;14.60;99.90;;;;;;5112315;28;20394;-71
2022/06/14 05:57:07;;;;;;;9.13;6.00;;;14.60;99.90;;;;;;5104790;28;20701;-71
2022/06/14 05:59:39;;;;;;;8.53;6.10;;;14.70;99.90;;;;;;5113107;28;20417;-71
2022/06/14 06:02:27;;;;;;;6.33;5.83;;;14.70;99.90;;;;;;5113091;28;20405;-71
2022/06/14 06:05:05;;;;;;;6.20;5.60;;;14.80;99.90;;;;;;5112381;28;20409;-71
2022/06/14 06:07:39;;;;;;;7.27;6.57;;;14.80;99.90;;;;;;5113014;28;20398;-71
2022/06/14 06:10:10;;;;;;;8.13;7.40;;;14.90;99.90;;;;;;5112884;28;20390;-71
2022/06/14 06:12:56;;;;;;;8.70;7.80;;;15.00;99.90;;;;;;5112324;28;20491;-75
2022/06/14 06:15:36;;;;;;;10.43;8.90;;;15.10;99.90;;;;;;5112974;28;20533;-71
2022/06/14 06:18:10;;;;;;;11.43;9.17;;;15.10;99.90;;;;;;5112889;28;20408;-71
2022/06/14 06:20:49;;;;;;;10.43;8.77;;;15.20;99.90;;;;;;5112129;28;20479;-75
2022/06/14 06:23:20;;;;;;;11.00;9.20;;;15.30;99.90;;;;;;5112992;28;20502;-71
2022/06/14 06:25:52;;;;;;;11.77;10.37;;;15.40;99.90;;;;;;5112118;28;20451;-71
2022/06/14 06:28:28;;;;;;;13.23;10.43;;;15.50;99.90;;;;;;5112708;28;20502;-71
2022/06/14 06:30:58;;;;;;;11.10;9.77;;;15.50;99.90;;;;;;5112301;28;20892;-71
2022/06/14 06:33:27;;;;;;;15.43;11.17;;;15.60;99.90;;;;;;5112679;28;20401;-71
2022/06/14 06:36:18;;;;;;;14.67;10.97;;;15.70;99.90;;;;;;5112107;28;20752;-71
2022/06/14 06:39:16;;;;;;;11.73;10.53;;;15.80;99.90;;;;;;5112108;28;20914;-71
2022/06/14 06:41:54;;;;;;;12.60;10.70;;;15.90;99.90;;;;;;5112145;28;20458;-71
2022/06/14 06:44:46;;;;;;;10.93;8.67;;;16.00;99.90;;;;;;5112672;28;20393;-71
2022/06/14 06:47:17;;;;;;;10.80;9.83;;;16.10;99.90;;;;;;5112231;28;20982;-71
2022/06/14 06:49:57;;;;;;;9.50;8.50;;;16.20;99.90;;;;;;5111603;28;20415;-71
2022/06/14 06:52:49;;;;;;;13.00;8.73;;;16.30;99.90;;;;;;5115319;28;20431;-71
2022/06/14 06:55:31;;;;;;;9.60;6.03;;;16.40;99.90;;;;;;5110268;28;20763;-71
2022/06/14 06:57:59;;;;;;;7.10;5.93;;;16.40;99.60;;;;;;5114349;28;20413;-71
2022/06/14 07:00:27;;;;;;;7.37;5.30;;;16.40;99.90;;;;;;5114692;28;20410;-71
2022/06/14 07:03:15;;;;;;;6.63;5.33;;;16.50;99.00;;;;;;5115055;28;20892;-71
2022/06/14 07:05:42;;;;;;;5.30;4.33;;;16.50;98.50;;;;;;5115359;28;20437;-71
2022/06/14 07:08:16;;;;;;;6.83;4.73;;;16.60;98.50;;;;;;5115643;28;20880;-71
2022/06/14 07:10:54;;;;;;;6.70;5.20;;;16.70;98.20;;;;;;5115029;28;20480;-71
2022/06/14 07:13:48;;;;;;;6.43;5.73;;;16.70;98.20;;;;;;5115494;28;20401;-71
2022/06/14 07:16:29;;;;;;;7.57;5.73;;;16.90;98.70;;;;;;5115748;28;20397;-71
2022/06/14 07:19:07;;;;;;;8.30;5.30;;;17.00;98.30;;;;;;5114875;28;20497;-71
2022/06/14 07:21:42;;;;;;;5.83;4.87;;;17.10;98.20;;;;;;5115672;28;20398;-71
2022/06/14 07:24:17;;;;;;;8.07;5.73;;;17.30;98.20;;;;;;5115679;28;20389;-70
2022/06/14 07:27:07;;;;;;;6.87;6.20;;;17.40;97.40;;;;;;5114557;28;20942;-71
2022/06/14 07:29:47;;;;;;;8.03;6.17;;;17.60;98.40;;;;;;5115502;28;20430;-70
2022/06/14 07:32:17;;;;;;;6.30;5.70;;;17.90;97.90;;;;;;5115807;28;20401;-70
2022/06/14 07:34:44;;;;;;;9.30;5.73;;;18.00;96.10;;;;;;5114784;28;20400;-71
2022/06/14 07:37:20;;;;;;;9.10;7.60;;;18.10;96.40;;;;;;5115490;28;20398;-70
2022/06/14 07:39:57;;;;;;;7.83;6.53;;;18.20;96.30;;;;;;5114789;28;20417;-71
2022/06/14 07:42:28;;;;;;;6.63;5.97;;;18.40;96.90;;;;;;5115307;28;20735;-71
2022/06/14 07:45:01;;;;;;;6.63;6.03;;;18.60;95.70;;;;;;5114546;28;20397;-71
2022/06/14 07:47:36;;;;;;;8.83;6.83;;;18.70;95.50;;;;;;5114915;28;20404;-70
2022/06/14 07:50:22;;;;;;;6.77;5.67;;;18.90;94.90;;;;;;5114805;28;20404;-70
2022/06/14 07:53:10;;;;;;;5.93;4.70;;;19.10;94.30;;;;;;5114107;28;20729;-71
2022/06/14 07:55:50;;;;;;;6.00;4.43;;;19.20;93.80;;;;;;5114980;28;20393;-70
2022/06/14 07:58:43;;;;;;;4.50;4.20;;;19.30;93.70;;;;;;5114918;28;20389;-71
2022/06/14 08:01:38;;;;;;;4.23;3.90;;;19.40;93.90;;;;;;5114244;28;20416;-71
2022/06/14 08:04:04;;;;;;;6.70;4.50;;;19.50;92.10;;;;;;5092315;28;20417;-71
2022/06/14 08:06:35;;;;;;;4.40;4.00;;;19.50;91.40;;;;;;5114576;28;20507;-71
2022/06/14 08:09:16;;;;;;;4.10;3.70;;;19.50;91.50;;;;;;5114129;28;20216;-71
2022/06/14 08:11:55;;;;;;;5.10;4.80;;;19.50;91.80;;;;;;5114786;28;20725;-71
2022/06/14 08:14:43;;;;;;;4.87;4.30;;;19.50;91.60;;;;;;5113521;28;20397;-72
2022/06/14 08:17:13;;;;;;;4.77;4.37;;;19.60;91.60;;;;;;5114165;28;21023;-71
2022/06/14 08:20:01;;;;;;;5.97;4.37;;;19.70;91.40;;;;;;5114088;28;20937;-71
2022/06/14 08:22:39;;;;;;;5.93;4.67;;;19.90;92.10;;;;;;5114422;28;20409;-71
2022/06/14 08:25:20;;;;;;;4.93;4.63;;;20.10;90.50;;;;;;5114003;28;20392;-71
2022/06/14 08:28:08;;;;;;;5.63;5.10;;;20.30;91.00;;;;;;5113555;28;20715;-72
2022/06/14 08:30:43;;;;;;;8.70;5.20;;;20.50;91.20;;;;;;5114589;28;20444;-71
2022/06/14 08:33:26;;;;;;;8.00;5.17;;;20.50;82.90;;;;;;5114332;28;20424;-71
2022/06/14 08:35:55;;;;;;;10.00;5.00;;;20.50;85.50;;;;;;5113543;28;20861;-72
2022/06/14 08:38:44;;;;;;;5.10;4.70;;;20.60;85.80;;;;;;5114086;28;20394;-71
2022/06/14 08:41:37;;;;;;;7.63;6.03;;;20.80;87.60;;;;;;5114585;28;20409;-71
2022/06/14 08:44:42;;;;;;;6.43;5.20;;;20.90;86.20;;;;;;5113486;28;20484;-72
2022/06/14 08:47:36;;;;;;;5.70;5.10;;;21.10;87.00;;;;;;5070315;28;20803;-71
2022/06/14 08:50:29;;;;;;;5.67;4.80;;;21.30;87.90;;;;;;5112766;28;20422;-71
2022/06/14 08:53:27;;;;;;;6.10;5.60;;;21.40;88.40;;;;;;5113292;28;20409;-71
2022/06/14 08:56:49;;;;;;;4.70;4.30;;;21.60;88.40;;;;;;5113303;28;20429;-72
2022/06/14 08:59:36;;;;;;;4.97;4.40;;;21.80;80.80;;;;;;5070669;28;20889;-71
2022/06/14 09:02:14;;;;;;;4.80;4.30;;;21.90;81.20;;;;;;5070142;28;20392;-71
2022/06/14 09:04:52;;;;;;;5.90;4.00;;;21.80;74.00;;;;;;5070724;28;20403;-71
2022/06/14 09:07:39;;;;;;;5.07;4.67;;;21.90;79.90;;;;;;5071042;28;20889;-71
2022/06/14 09:10:25;;;;;;;6.33;4.23;;;22.00;86.60;;;;;;5070456;28;20407;-71
2022/06/14 09:13:12;;;;;;;4.37;4.10;;;22.20;85.60;;;;;;5070398;28;20448;-71
2022/06/14 09:15:56;;;;;;;4.87;4.37;;;22.40;81.00;;;;;;5070295;28;20772;-71
2022/06/14 09:18:39;;;;;;;4.20;3.80;;;22.50;78.60;;;;;;5070489;28;20461;-71
2022/06/14 09:21:42;;;;;;;4.33;3.40;;;22.60;75.30;;;;;;5036478;28;20455;-71
2022/06/14 09:24:35;;;;;;;5.03;4.57;;;22.80;73.20;;;;;;5046229;28;20450;-72
2022/06/14 09:27:31;;;;;;;4.40;4.10;;;22.90;73.70;;;;;;5069875;28;20447;-71
2022/06/14 09:30:33;;;;;;;5.10;4.37;;;23.00;73.90;;;;;;5086216;28;20778;-71
2022/06/14 09:33:23;;;;;;;4.67;4.27;;;23.20;70.60;;;;;;5113040;28;20480;-71
2022/06/14 09:36:10;;;;;;;5.10;3.90;;;23.30;73.60;;;;;;5112474;28;20795;-72
2022/06/14 09:39:00;;;;;;;5.47;4.80;;;23.30;73.90;;;;;;5113093;28;20388;-72
2022/06/14 09:41:44;;;;;;;5.67;5.13;;;23.50;73.50;;;;;;5112285;28;20389;-71
2022/06/14 09:44:36;;;;;;;5.50;5.00;;;23.60;71.70;;;;;;5112652;28;20426;-72
2022/06/14 09:47:23;;;;;;;6.93;5.77;;;23.60;72.30;;;;;;5109486;28;20456;-71
2022/06/14 09:50:23;;;;;;;7.83;5.33;;;23.60;73.00;;;;;;5112742;28;20470;-75
2022/06/14 09:53:22;;;;;;;5.90;5.33;;;23.70;72.30;;;;;;5112497;28;20416;-74
2022/06/14 09:55:56;;;;;;;5.83;5.40;;;23.80;73.70;;;;;;5111774;28;20421;-71
2022/06/14 09:59:03;;;;;;;5.97;5.40;;;23.90;75.70;;;;;;5113455;28;20394;-71
2022/06/14 10:01:37;;;;;;;7.10;6.07;;;23.90;77.30;;;;;;5113213;28;20390;-71
2022/06/14 10:04:28;;;;;;;5.07;4.77;;;24.00;76.40;;;;;;5112384;28;20397;-71
2022/06/14 10:07:13;;;;;;;6.90;5.33;;;24.10;73.50;;;;;;5112394;28;20524;-71
2022/06/14 10:10:00;;;;;;;5.80;5.43;;;24.20;74.90;;;;;;5113224;28;20455;-71
2022/06/14 10:13:01;;;;;;;5.67;5.27;;;24.30;71.20;;;;;;5111811;28;20496;-72
2022/06/14 10:16:04;;;;;;;6.20;5.70;;;24.40;67.70;;;;;;5106233;28;20897;-71
2022/06/14 10:19:01;;;;;;;5.97;5.37;;;24.40;66.60;;;;;;5112606;28;20418;-71
2022/06/14 10:21:52;;;;;;;7.70;7.10;;;24.50;69.10;;;;;;5113210;28;20469;-71
2022/06/14 10:24:28;;;;;;;6.30;5.90;;;24.60;70.50;;;;;;5112923;28;20394;-71
2022/06/14 10:30:05;;;;;;;7.70;7.00;;;24.70;73.80;;;;;;5116894;28;20762;-71
2022/06/14 10:33:11;;;;;;;6.87;6.37;;;24.80;72.20;;;;;;5116722;28;20401;-71
2022/06/14 10:35:54;;;;;;;8.10;7.30;;;24.90;72.80;;;;;;5116604;28;20408;-71
2022/06/14 10:38:38;;;;;;;7.23;6.17;;;25.00;70.50;;;;;;5116505;28;20501;-71
2022/06/14 10:41:35;;;;;;;7.67;6.00;;;25.00;71.20;;;;;;5115797;28;20451;-71
2022/06/14 10:44:21;;;;;;;7.10;6.40;;;25.10;72.20;;;;;;5112667;28;20421;-71
2022/06/14 10:47:04;;;;;;;6.10;5.60;;;25.00;70.10;;;;;;5116144;28;20531;-71
2022/06/14 10:49:54;;;;;;;5.90;5.30;;;25.10;71.80;;;;;;5116642;28;20748;-71
2022/06/14 10:52:38;;;;;;;6.17;5.77;;;25.30;69.00;;;;;;5116322;28;20480;-71
2022/06/14 10:55:26;;;;;;;7.10;6.50;;;25.30;71.40;;;;;;5115650;28;20400;-71
2022/06/14 10:58:28;;;;;;;6.60;6.13;;;25.20;67.10;;;;;;5115695;28;20413;-71
2022/06/14 11:01:11;;;;;;;7.07;5.60;;;25.30;66.40;;;;;;5115611;28;20790;-72
2022/06/14 11:04:02;;;;;;;7.20;6.60;;;25.30;69.00;;;;;;5115802;28;20390;-71
2022/06/14 11:06:49;;;;;;;8.67;7.20;;;25.40;67.70;;;;;;5110714;28;20471;-71
2022/06/14 11:09:42;;;;;;;7.20;6.50;;;25.20;65.00;;;;;;5115470;28;20464;-71
2022/06/14 11:12:22;;;;;;;6.30;5.80;;;25.00;62.90;;;;;;5114145;28;20485;-71
2022/06/14 11:14:59;;;;;;;7.23;6.63;;;24.80;66.20;;;;;;5115997;28;20733;-71
2022/06/14 11:18:00;;;;;;;6.30;5.80;;;24.70;64.10;;;;;;5115854;28;20467;-71
2022/06/14 11:20:40;;;;;;;8.53;6.77;;;24.50;67.40;;;;;;5115785;28;20599;-71
2022/06/14 11:23:27;;;;;;;7.97;7.17;;;24.70;68.50;;;;;;5114993;28;20446;-71
2022/06/14 11:26:07;;;;;;;8.03;7.40;;;24.80;67.80;;;;;;5115649;28;20541;-71
2022/06/14 11:28:46;;;;;;;10.60;9.50;;;24.90;65.00;;;;;;5115628;28;20427;-71
2022/06/14 11:31:22;;;;;;;8.93;8.20;;;24.90;65.60;;;;;;5071969;28;20402;-71
2022/06/14 11:33:48;;;;;;;7.97;7.13;;;25.10;63.10;;;;;;5072518;28;20815;-71
2022/06/14 11:36:19;;;;;;;7.50;6.90;;;25.10;66.10;;;;;;5071474;28;20437;-72
2022/06/14 11:39:22;;;;;;;7.50;6.63;;;25.30;70.30;;;;;;5072038;28;20256;-71
2022/06/14 11:41:50;;;;;;;5.93;5.53;;;25.40;70.60;;;;;;5072254;28;20419;-71
2022/06/14 11:44:33;;;;;;;7.83;7.00;;;25.30;66.00;;;;;;5071604;28;20419;-71
2022/06/14 11:47:18;;;;;;;7.20;6.60;;;25.20;65.80;;;;;;5071540;28;20469;-71
2022/06/14 11:50:07;;;;;;;7.53;6.87;;;25.00;67.10;;;;;;5071934;28;21053;-71
2022/06/14 11:52:54;;;;;;;9.13;8.30;;;24.70;67.20;;;;;;5072233;28;20746;-71
2022/06/14 11:55:31;;;;;;;8.00;7.30;;;24.60;71.70;;;;;;5071412;28;20773;-71
2022/06/14 11:58:10;;;;;;;9.20;8.50;;;24.50;69.80;;;;;;5071430;28;20434;-74
2022/06/14 12:00:56;;;;;;;8.93;8.33;;;24.50;70.70;;;;;;5072033;28;20412;-71
2022/06/14 12:03:40;;;;;;;8.87;8.00;;;24.70;68.50;;;;;;5112123;28;20508;-71
2022/06/14 12:06:33;;;;;;;8.10;7.50;;;24.80;68.70;;;;;;5114097;28;20440;-71
2022/06/14 12:09:17;;;;;;;7.93;7.10;;;24.90;68.90;;;;;;5114115;28;20397;-72
2022/06/14 12:12:14;;;;;;;7.37;6.87;;;24.90;71.00;;;;;;5114414;28;20390;-71
2022/06/14 12:14:52;;;;;;;10.00;9.03;;;25.00;70.70;;;;;;5114433;28;20899;-71
2022/06/14 12:17:27;;;;;;;7.93;6.83;;;25.00;74.60;;;;;;5113773;28;20913;-71
2022/06/14 12:20:04;;;;;;;8.20;7.53;;;25.10;72.40;;;;;;5114429;28;20513;-71
2022/06/14 12:22:50;;;;;;;7.23;6.67;;;25.20;71.90;;;;;;5114455;28;20492;-71
2022/06/14 12:28:35;;;;;;;7.97;7.40;;;25.50;69.30;;;;;;5113785;28;20386;-72
2022/06/14 12:31:20;;;;;;;8.10;7.50;;;25.60;70.10;;;;;;5113816;28;20887;-71
2022/06/14 12:33:55;;;;;;;10.10;9.23;;;25.60;70.50;;;;;;5114256;28;20410;-72
2022/06/14 12:36:24;;;;;;;8.03;7.43;;;25.60;68.30;;;;;;5113786;28;20405;-71
2022/06/14 12:38:56;;;;;;;8.97;7.93;;;25.60;65.90;;;;;;5114126;28;20416;-71
2022/06/14 12:41:21;;;;;;;7.83;7.30;;;25.70;68.90;;;;;;5112508;28;20397;-71
2022/06/14 12:43:58;;;;;;;9.53;8.73;;;25.60;66.40;;;;;;5114027;28;20440;-71
2022/06/14 12:46:29;;;;;;;9.33;8.60;;;25.60;61.00;;;;;;5113741;28;20187;-71
2022/06/14 12:49:17;;;;;;;8.77;8.07;;;25.50;60.20;;;;;;5093865;28;20508;-71
2022/06/14 12:51:52;;;;;;;7.30;6.80;;;25.60;61.10;;;;;;5113960;28;20406;-70
2022/06/14 12:54:39;;;;;;;9.10;8.60;;;25.60;63.30;;;;;;5113253;28;20404;-70
2022/06/14 12:57:16;;;;;;;8.70;7.93;;;25.40;58.70;;;;;;5113095;28;20923;-71
2022/06/14 12:59:54;;;;;;;8.10;7.47;;;25.30;64.20;;;;;;5113897;28;20442;-70
2022/06/14 13:02:20;;;;;;;9.70;8.70;;;25.40;66.00;;;;;;5113217;28;20917;-70
2022/06/14 13:05:00;;;;;;;6.80;6.30;;;25.40;63.80;;;;;;5113847;28;20402;-71
2022/06/14 13:07:32;;;;;;;8.90;8.13;;;25.40;64.70;;;;;;5113638;28;20167;-70
2022/06/14 13:10:24;;;;;;;9.13;8.20;;;25.30;64.00;;;;;;5113653;28;20469;-71
2022/06/14 13:13:05;;;;;;;8.17;7.47;;;25.40;67.40;;;;;;5113549;28;20485;-70
2022/06/14 13:15:44;;;;;;;7.50;6.90;;;25.40;63.00;;;;;;5113670;28;20869;-71
2022/06/14 13:18:26;;;;;;;8.00;7.37;;;25.50;64.20;;;;;;5113023;28;20455;-70
2022/06/14 13:21:31;;;;;;;7.73;7.13;;;25.50;65.00;;;;;;5112019;28;20778;-70
2022/06/14 13:24:16;;;;;;;8.70;8.10;;;25.50;66.60;;;;;;5113334;28;20473;-70
2022/06/14 13:27:00;;;;;;;9.50;8.50;;;25.50;64.30;;;;;;5113075;28;20490;-70
2022/06/14 13:29:49;;;;;;;8.33;7.70;;;25.50;67.20;;;;;;5112760;28;20385;-71
2022/06/14 13:32:30;;;;;;;9.67;8.87;;;25.50;63.50;;;;;;5112760;28;20404;-70
2022/06/14 13:35:28;;;;;;;10.40;8.80;;;25.50;61.30;;;;;;5113222;28;20772;-71
2022/06/14 13:38:06;;;;;;;9.13;7.87;;;25.60;65.80;;;;;;5112876;28;20405;-70
2022/06/14 13:40:47;;;;;;;8.73;8.13;;;25.70;66.00;;;;;;5113229;28;20410;-70
2022/06/14 13:43:27;;;;;;;9.90;9.00;;;25.70;66.10;;;;;;5112393;28;20390;-70
2022/06/14 13:46:15;;;;;;;10.10;8.30;;;25.80;62.70;;;;;;5113145;28;20431;-71
2022/06/14 13:49:00;;;;;;;11.33;10.17;;;25.90;63.60;;;;;;5112999;28;20457;-71
2022/06/14 13:51:47;;;;;;;9.97;9.27;;;25.90;63.10;;;;;;5113133;28;20394;-71
2022/06/14 13:54:43;;;;;;;11.27;9.87;;;25.90;61.20;;;;;;5112520;28;20401;-71
2022/06/14 13:58:00;;;;;;;11.73;9.47;;;25.90;63.80;;;;;;5111521;28;20404;-71
2022/06/14 14:00:32;;;;;;;9.77;8.80;;;25.90;61.90;;;;;;5090522;28;20422;-71
2022/06/14 14:03:16;;;;;;;11.63;10.63;;;25.90;66.80;;;;;;5117083;28;20478;-71
2022/06/14 14:06:06;;;;;;;8.90;8.20;;;25.90;65.10;;;;;;5117245;28;20449;-71
2022/06/14 14:08:45;;;;;;;10.23;9.50;;;25.90;62.90;;;;;;5115031;28;20428;-71